Baltzer, Mississippi
Current Conditions -  °F | °C
As of 10:55 PM on Sunday 21 Dec 2014 (Local Time) from KCKM Reporting Station
Overcast Overcast  
Wind Chill: 42°   Ceiling: 9000
Heat Index: 46°   Visibility: 10mi
Dew Point: 45°   Wind: 9mph
Humidity: 93%   Direction: 130°SE
Pressure: 29.94"   Gusts: NA
Location:  34.1809°N, 90.6118°W
Report Text: KCKM 220455Z AUTO 13008KT 10SM OVC090 08/07 A2994 RMK AO1
Loading
Personal Weather Stations






























Interactive Weather Map New forecast layout! Learn more

10-Day Weather Forecast

Advertisements
Track Severe Weather on mobile